sensor_id;sensor_type;location;lat;lon;timestamp;P1;durP1;ratioP1;P2;durP2;ratioP2
23117;SDS011;11728;50.624;6.014;2022-07-12T00:00:17;8.65;;;5.38;;
23117;SDS011;11728;50.624;6.014;2022-07-12T00:05:18;7.95;;;5.65;;
23117;SDS011;11728;50.624;6.014;2022-07-12T00:10:18;7.80;;;6.00;;
23117;SDS011;11728;50.624;6.014;2022-07-12T00:15:19;7.85;;;6.68;;
23117;SDS011;11728;50.624;6.014;2022-07-12T00:20:19;9.15;;;6.47;;
23117;SDS011;11728;50.624;6.014;2022-07-12T00:25:20;6.28;;;5.60;;
23117;SDS011;11728;50.624;6.014;2022-07-12T00:30:21;7.25;;;5.45;;
23117;SDS011;11728;50.624;6.014;2022-07-12T00:35:22;6.32;;;5.60;;
23117;SDS011;11728;50.624;6.014;2022-07-12T00:40:23;7.13;;;5.38;;
23117;SDS011;11728;50.624;6.014;2022-07-12T00:45:23;7.57;;;5.70;;
23117;SDS011;11728;50.624;6.014;2022-07-12T00:50:24;8.00;;;5.70;;
23117;SDS011;11728;50.624;6.014;2022-07-12T00:55:25;8.60;;;5.55;;
23117;SDS011;11728;50.624;6.014;2022-07-12T01:00:26;7.07;;;6.05;;
23117;SDS011;11728;50.624;6.014;2022-07-12T01:05:28;7.82;;;5.60;;
23117;SDS011;11728;50.624;6.014;2022-07-12T01:10:30;7.22;;;6.28;;
23117;SDS011;11728;50.624;6.014;2022-07-12T01:15:32;8.73;;;6.43;;
23117;SDS011;11728;50.624;6.014;2022-07-12T01:20:32;10.00;;;7.55;;
23117;SDS011;11728;50.624;6.014;2022-07-12T01:25:34;10.73;;;7.68;;
23117;SDS011;11728;50.624;6.014;2022-07-12T01:30:34;8.48;;;7.05;;
23117;SDS011;11728;50.624;6.014;2022-07-12T01:35:35;9.43;;;7.80;;
23117;SDS011;11728;50.624;6.014;2022-07-12T01:40:36;8.90;;;7.72;;
23117;SDS011;11728;50.624;6.014;2022-07-12T01:45:37;9.98;;;8.75;;
23117;SDS011;11728;50.624;6.014;2022-07-12T01:50:37;10.50;;;8.23;;
23117;SDS011;11728;50.624;6.014;2022-07-12T01:55:38;11.60;;;8.88;;
23117;SDS011;11728;50.624;6.014;2022-07-12T02:00:39;14.00;;;10.00;;
23117;SDS011;11728;50.624;6.014;2022-07-12T02:05:40;12.02;;;9.48;;
23117;SDS011;11728;50.624;6.014;2022-07-12T02:10:41;12.82;;;9.57;;
23117;SDS011;11728;50.624;6.014;2022-07-12T02:15:42;11.82;;;9.50;;
23117;SDS011;11728;50.624;6.014;2022-07-12T02:20:43;13.40;;;9.38;;
23117;SDS011;11728;50.624;6.014;2022-07-12T02:25:43;12.60;;;10.02;;
23117;SDS011;11728;50.624;6.014;2022-07-12T02:30:44;11.93;;;9.95;;
23117;SDS011;11728;50.624;6.014;2022-07-12T02:35:44;13.43;;;10.68;;
23117;SDS011;11728;50.624;6.014;2022-07-12T02:40:45;13.23;;;10.55;;
23117;SDS011;11728;50.624;6.014;2022-07-12T02:45:55;14.70;;;12.05;;
23117;SDS011;11728;50.624;6.014;2022-07-12T02:51:06;14.00;;;11.73;;
23117;SDS011;11728;50.624;6.014;2022-07-12T02:56:08;15.00;;;11.02;;
23117;SDS011;11728;50.624;6.014;2022-07-12T03:01:09;14.43;;;12.00;;
23117;SDS011;11728;50.624;6.014;2022-07-12T03:06:09;16.20;;;12.30;;
23117;SDS011;11728;50.624;6.014;2022-07-12T03:11:10;14.48;;;12.35;;
23117;SDS011;11728;50.624;6.014;2022-07-12T03:16:10;14.77;;;12.18;;
23117;SDS011;11728;50.624;6.014;2022-07-12T03:21:11;16.63;;;12.65;;
23117;SDS011;11728;50.624;6.014;2022-07-12T03:26:11;19.33;;;13.63;;
23117;SDS011;11728;50.624;6.014;2022-07-12T03:31:12;19.23;;;13.85;;
23117;SDS011;11728;50.624;6.014;2022-07-12T03:36:13;19.95;;;14.77;;
23117;SDS011;11728;50.624;6.014;2022-07-12T03:41:13;16.40;;;13.73;;
23117;SDS011;11728;50.624;6.014;2022-07-12T03:46:14;17.98;;;13.98;;
23117;SDS011;11728;50.624;6.014;2022-07-12T03:51:14;16.88;;;13.70;;
23117;SDS011;11728;50.624;6.014;2022-07-12T03:56:15;16.67;;;14.13;;
23117;SDS011;11728;50.624;6.014;2022-07-12T04:01:35;17.50;;;14.00;;
23117;SDS011;11728;50.624;6.014;2022-07-12T04:06:36;16.33;;;13.40;;
23117;SDS011;11728;50.624;6.014;2022-07-12T04:11:38;17.27;;;12.80;;
23117;SDS011;11728;50.624;6.014;2022-07-12T04:16:39;16.10;;;13.63;;
23117;SDS011;11728;50.624;6.014;2022-07-12T04:21:39;16.20;;;13.63;;
23117;SDS011;11728;50.624;6.014;2022-07-12T04:26:40;20.58;;;15.05;;
23117;SDS011;11728;50.624;6.014;2022-07-12T04:31:41;18.58;;;14.85;;
23117;SDS011;11728;50.624;6.014;2022-07-12T04:36:41;18.60;;;14.65;;
23117;SDS011;11728;50.624;6.014;2022-07-12T04:41:42;20.10;;;15.57;;
23117;SDS011;11728;50.624;6.014;2022-07-12T04:46:43;18.23;;;14.50;;
23117;SDS011;11728;50.624;6.014;2022-07-12T04:51:43;17.55;;;14.27;;
23117;SDS011;11728;50.624;6.014;2022-07-12T04:56:45;18.58;;;14.18;;
23117;SDS011;11728;50.624;6.014;2022-07-12T05:01:45;17.55;;;13.18;;
23117;SDS011;11728;50.624;6.014;2022-07-12T05:06:46;17.70;;;13.52;;
23117;SDS011;11728;50.624;6.014;2022-07-12T05:11:46;15.35;;;12.30;;
23117;SDS011;11728;50.624;6.014;2022-07-12T05:16:47;14.35;;;11.82;;
23117;SDS011;11728;50.624;6.014;2022-07-12T05:21:47;14.05;;;10.55;;
23117;SDS011;11728;50.624;6.014;2022-07-12T05:26:48;13.02;;;9.57;;
23117;SDS011;11728;50.624;6.014;2022-07-12T05:31:48;9.77;;;8.77;;
23117;SDS011;11728;50.624;6.014;2022-07-12T05:36:49;10.15;;;8.60;;
23117;SDS011;11728;50.624;6.014;2022-07-12T05:41:50;11.63;;;7.70;;
23117;SDS011;11728;50.624;6.014;2022-07-12T05:46:51;10.18;;;8.07;;
23117;SDS011;11728;50.624;6.014;2022-07-12T05:51:51;9.48;;;7.43;;
23117;SDS011;11728;50.624;6.014;2022-07-12T05:57:10;8.37;;;7.10;;
23117;SDS011;11728;50.624;6.014;2022-07-12T06:02:11;8.57;;;6.47;;
23117;SDS011;11728;50.624;6.014;2022-07-12T06:07:11;7.25;;;5.97;;
23117;SDS011;11728;50.624;6.014;2022-07-12T06:12:12;8.68;;;5.80;;
23117;SDS011;11728;50.624;6.014;2022-07-12T06:17:13;6.68;;;5.05;;
23117;SDS011;11728;50.624;6.014;2022-07-12T06:22:13;6.55;;;5.25;;
23117;SDS011;11728;50.624;6.014;2022-07-12T06:27:14;4.40;;;3.78;;
23117;SDS011;11728;50.624;6.014;2022-07-12T06:32:17;7.28;;;3.78;;
23117;SDS011;11728;50.624;6.014;2022-07-12T06:37:18;3.38;;;2.53;;
23117;SDS011;11728;50.624;6.014;2022-07-12T06:42:18;3.50;;;2.70;;
23117;SDS011;11728;50.624;6.014;2022-07-12T06:47:27;3.20;;;2.50;;
23117;SDS011;11728;50.624;6.014;2022-07-12T06:52:28;2.70;;;2.30;;
23117;SDS011;11728;50.624;6.014;2022-07-12T06:57:28;2.88;;;2.10;;
23117;SDS011;11728;50.624;6.014;2022-07-12T07:02:33;2.50;;;1.70;;
23117;SDS011;11728;50.624;6.014;2022-07-12T07:07:34;2.10;;;1.70;;
23117;SDS011;11728;50.624;6.014;2022-07-12T07:12:34;3.80;;;1.90;;
23117;SDS011;11728;50.624;6.014;2022-07-12T07:17:35;2.05;;;1.35;;
23117;SDS011;11728;50.624;6.014;2022-07-12T07:22:35;2.17;;;1.60;;
23117;SDS011;11728;50.624;6.014;2022-07-12T07:27:36;3.92;;;1.73;;
23117;SDS011;11728;50.624;6.014;2022-07-12T07:32:38;2.30;;;1.40;;
23117;SDS011;11728;50.624;6.014;2022-07-12T07:37:39;1.95;;;1.45;;
23117;SDS011;11728;50.624;6.014;2022-07-12T07:42:39;2.47;;;1.40;;
23117;SDS011;11728;50.624;6.014;2022-07-12T07:47:43;3.08;;;1.30;;
23117;SDS011;11728;50.624;6.014;2022-07-12T07:52:48;1.85;;;1.48;;
23117;SDS011;11728;50.624;6.014;2022-07-12T07:57:51;2.22;;;1.48;;
23117;SDS011;11728;50.624;6.014;2022-07-12T08:02:51;1.80;;;1.20;;
23117;SDS011;11728;50.624;6.014;2022-07-12T08:07:54;3.80;;;1.40;;
23117;SDS011;11728;50.624;6.014;2022-07-12T08:12:55;1.65;;;1.15;;
23117;SDS011;11728;50.624;6.014;2022-07-12T08:17:56;2.10;;;1.20;;
23117;SDS011;11728;50.624;6.014;2022-07-12T08:22:56;2.10;;;1.10;;
23117;SDS011;11728;50.624;6.014;2022-07-12T08:27:57;1.83;;;1.05;;
23117;SDS011;11728;50.624;6.014;2022-07-12T08:32:57;1.17;;;0.97;;
23117;SDS011;11728;50.624;6.014;2022-07-12T08:37:58;0.82;;;0.70;;
23117;SDS011;11728;50.624;6.014;2022-07-12T08:42:58;1.00;;;0.80;;
23117;SDS011;11728;50.624;6.014;2022-07-12T08:48:00;1.58;;;1.00;;
23117;SDS011;11728;50.624;6.014;2022-07-12T08:53:01;4.03;;;0.80;;
23117;SDS011;11728;50.624;6.014;2022-07-12T08:58:03;1.02;;;0.70;;
23117;SDS011;11728;50.624;6.014;2022-07-12T09:03:06;1.63;;;0.88;;
23117;SDS011;11728;50.624;6.014;2022-07-12T09:08:08;1.33;;;0.80;;
23117;SDS011;11728;50.624;6.014;2022-07-12T09:13:10;0.90;;;0.63;;
23117;SDS011;11728;50.624;6.014;2022-07-12T09:18:10;1.10;;;0.80;;
23117;SDS011;11728;50.624;6.014;2022-07-12T09:23:15;1.30;;;0.80;;
23117;SDS011;11728;50.624;6.014;2022-07-12T09:28:16;1.35;;;1.00;;
23117;SDS011;11728;50.624;6.014;2022-07-12T09:33:17;1.10;;;0.80;;
23117;SDS011;11728;50.624;6.014;2022-07-12T09:38:37;1.23;;;0.60;;
23117;SDS011;11728;50.624;6.014;2022-07-12T09:43:50;1.00;;;0.77;;
23117;SDS011;11728;50.624;6.014;2022-07-12T09:48:51;1.52;;;0.63;;
23117;SDS011;11728;50.624;6.014;2022-07-12T09:53:52;0.80;;;0.63;;
23117;SDS011;11728;50.624;6.014;2022-07-12T09:58:55;1.13;;;0.75;;
23117;SDS011;11728;50.624;6.014;2022-07-12T10:03:59;1.00;;;0.70;;
23117;SDS011;11728;50.624;6.014;2022-07-12T10:08:59;1.00;;;0.70;;
23117;SDS011;11728;50.624;6.014;2022-07-12T10:14:00;1.35;;;0.73;;
23117;SDS011;11728;50.624;6.014;2022-07-12T10:29:49;0.70;;;0.50;;
23117;SDS011;11728;50.624;6.014;2022-07-12T10:35:03;0.95;;;0.45;;
23117;SDS011;11728;50.624;6.014;2022-07-12T10:40:16;0.70;;;0.50;;
23117;SDS011;11728;50.624;6.014;2022-07-12T10:45:18;1.00;;;0.40;;
23117;SDS011;11728;50.624;6.014;2022-07-12T10:50:18;1.65;;;0.60;;
23117;SDS011;11728;50.624;6.014;2022-07-12T10:55:19;0.47;;;0.40;;
23117;SDS011;11728;50.624;6.014;2022-07-12T11:00:20;0.85;;;0.57;;
23117;SDS011;11728;50.624;6.014;2022-07-12T11:05:26;0.82;;;0.45;;
23117;SDS011;11728;50.624;6.014;2022-07-12T11:10:26;1.35;;;0.70;;
23117;SDS011;11728;50.624;6.014;2022-07-12T11:15:27;0.75;;;0.40;;
23117;SDS011;11728;50.624;6.014;2022-07-12T11:20:28;0.80;;;0.32;;
23117;SDS011;11728;50.624;6.014;2022-07-12T11:25:29;3.42;;;0.68;;
23117;SDS011;11728;50.624;6.014;2022-07-12T11:30:30;1.50;;;0.40;;
23117;SDS011;11728;50.624;6.014;2022-07-12T11:35:31;4.18;;;0.63;;
23117;SDS011;11728;50.624;6.014;2022-07-12T11:40:32;1.13;;;0.65;;
23117;SDS011;11728;50.624;6.014;2022-07-12T11:45:33;1.85;;;0.50;;
23117;SDS011;11728;50.624;6.014;2022-07-12T11:50:34;0.80;;;0.50;;
23117;SDS011;11728;50.624;6.014;2022-07-12T11:55:41;2.03;;;0.80;;
23117;SDS011;11728;50.624;6.014;2022-07-12T12:00:44;1.10;;;0.60;;
23117;SDS011;11728;50.624;6.014;2022-07-12T12:05:46;1.15;;;0.80;;
23117;SDS011;11728;50.624;6.014;2022-07-12T12:10:57;1.38;;;0.70;;
23117;SDS011;11728;50.624;6.014;2022-07-12T12:16:02;0.88;;;0.60;;
23117;SDS011;11728;50.624;6.014;2022-07-12T12:21:13;1.17;;;0.70;;
23117;SDS011;11728;50.624;6.014;2022-07-12T12:31:16;3.88;;;0.90;;
23117;SDS011;11728;50.624;6.014;2022-07-12T12:36:21;2.05;;;0.60;;
23117;SDS011;11728;50.624;6.014;2022-07-12T12:41:26;1.10;;;0.63;;
23117;SDS011;11728;50.624;6.014;2022-07-12T12:47:01;1.75;;;0.52;;
23117;SDS011;11728;50.624;6.014;2022-07-12T12:51:56;1.38;;;0.80;;
23117;SDS011;11728;50.624;6.014;2022-07-12T12:56:58;1.00;;;0.65;;
23117;SDS011;11728;50.624;6.014;2022-07-12T13:01:59;3.38;;;0.65;;
23117;SDS011;11728;50.624;6.014;2022-07-12T13:07:00;1.38;;;0.70;;
23117;SDS011;11728;50.624;6.014;2022-07-12T13:12:01;1.67;;;0.80;;
23117;SDS011;11728;50.624;6.014;2022-07-12T13:17:03;1.08;;;0.68;;
23117;SDS011;11728;50.624;6.014;2022-07-12T13:22:04;1.25;;;0.73;;
23117;SDS011;11728;50.624;6.014;2022-07-12T13:27:05;3.38;;;0.70;;
23117;SDS011;11728;50.624;6.014;2022-07-12T13:32:05;1.15;;;0.60;;
23117;SDS011;11728;50.624;6.014;2022-07-12T13:37:06;1.63;;;0.80;;
23117;SDS011;11728;50.624;6.014;2022-07-12T13:42:07;1.63;;;0.70;;
23117;SDS011;11728;50.624;6.014;2022-07-12T13:47:07;3.42;;;0.77;;
23117;SDS011;11728;50.624;6.014;2022-07-12T13:52:08;1.15;;;0.70;;
23117;SDS011;11728;50.624;6.014;2022-07-12T13:57:09;2.20;;;0.82;;
23117;SDS011;11728;50.624;6.014;2022-07-12T14:02:10;1.60;;;0.68;;
23117;SDS011;11728;50.624;6.014;2022-07-12T14:07:12;4.05;;;1.30;;
23117;SDS011;11728;50.624;6.014;2022-07-12T14:12:13;3.40;;;1.30;;
23117;SDS011;11728;50.624;6.014;2022-07-12T14:17:15;4.15;;;1.20;;
23117;SDS011;11728;50.624;6.014;2022-07-12T14:22:16;6.38;;;1.17;;
23117;SDS011;11728;50.624;6.014;2022-07-12T14:27:17;3.13;;;1.30;;
23117;SDS011;11728;50.624;6.014;2022-07-12T14:32:17;1.85;;;1.10;;
23117;SDS011;11728;50.624;6.014;2022-07-12T14:37:18;1.88;;;1.17;;
23117;SDS011;11728;50.624;6.014;2022-07-12T14:42:19;2.35;;;1.17;;
23117;SDS011;11728;50.624;6.014;2022-07-12T14:47:21;1.80;;;1.08;;
23117;SDS011;11728;50.624;6.014;2022-07-12T14:52:22;2.03;;;1.20;;
23117;SDS011;11728;50.624;6.014;2022-07-12T14:57:23;3.65;;;1.20;;
23117;SDS011;11728;50.624;6.014;2022-07-12T15:02:23;4.47;;;1.38;;
23117;SDS011;11728;50.624;6.014;2022-07-12T15:07:24;2.15;;;1.20;;
23117;SDS011;11728;50.624;6.014;2022-07-12T15:12:25;3.27;;;1.40;;
23117;SDS011;11728;50.624;6.014;2022-07-12T15:17:26;2.38;;;1.02;;
23117;SDS011;11728;50.624;6.014;2022-07-12T15:22:26;1.55;;;1.05;;
23117;SDS011;11728;50.624;6.014;2022-07-12T15:27:28;4.22;;;1.17;;
23117;SDS011;11728;50.624;6.014;2022-07-12T15:32:29;2.38;;;1.30;;
23117;SDS011;11728;50.624;6.014;2022-07-12T15:37:29;4.07;;;1.25;;
23117;SDS011;11728;50.624;6.014;2022-07-12T15:42:30;6.60;;;1.43;;
23117;SDS011;11728;50.624;6.014;2022-07-12T15:47:31;2.40;;;1.15;;
23117;SDS011;11728;50.624;6.014;2022-07-12T15:52:31;2.20;;;1.33;;
23117;SDS011;11728;50.624;6.014;2022-07-12T15:57:50;2.35;;;1.30;;
23117;SDS011;11728;50.624;6.014;2022-07-12T16:02:51;2.78;;;1.50;;
23117;SDS011;11728;50.624;6.014;2022-07-12T16:07:54;1.75;;;1.20;;
23117;SDS011;11728;50.624;6.014;2022-07-12T16:12:55;2.05;;;1.40;;
23117;SDS011;11728;50.624;6.014;2022-07-12T16:17:55;2.03;;;1.30;;
23117;SDS011;11728;50.624;6.014;2022-07-12T16:22:56;2.72;;;1.25;;
23117;SDS011;11728;50.624;6.014;2022-07-12T16:27:57;4.68;;;1.30;;
23117;SDS011;11728;50.624;6.014;2022-07-12T16:33:00;2.65;;;1.90;;
23117;SDS011;11728;50.624;6.014;2022-07-12T16:38:01;2.83;;;1.30;;
23117;SDS011;11728;50.624;6.014;2022-07-12T16:43:02;1.90;;;1.20;;
23117;SDS011;11728;50.624;6.014;2022-07-12T16:48:03;3.85;;;1.38;;
23117;SDS011;11728;50.624;6.014;2022-07-12T16:53:04;6.10;;;1.83;;
23117;SDS011;11728;50.624;6.014;2022-07-12T16:58:05;4.05;;;1.55;;
23117;SDS011;11728;50.624;6.014;2022-07-12T17:03:05;2.53;;;1.48;;
23117;SDS011;11728;50.624;6.014;2022-07-12T17:08:06;2.97;;;1.70;;
23117;SDS011;11728;50.624;6.014;2022-07-12T17:13:06;2.78;;;1.50;;
23117;SDS011;11728;50.624;6.014;2022-07-12T17:18:07;4.85;;;1.65;;
23117;SDS011;11728;50.624;6.014;2022-07-12T17:23:07;2.67;;;1.60;;
23117;SDS011;11728;50.624;6.014;2022-07-12T17:28:08;2.45;;;1.23;;
23117;SDS011;11728;50.624;6.014;2022-07-12T17:33:09;3.22;;;1.50;;
23117;SDS011;11728;50.624;6.014;2022-07-12T17:38:13;4.85;;;1.30;;
23117;SDS011;11728;50.624;6.014;2022-07-12T17:43:13;2.38;;;1.42;;
23117;SDS011;11728;50.624;6.014;2022-07-12T17:48:14;2.90;;;1.50;;
23117;SDS011;11728;50.624;6.014;2022-07-12T17:53:14;4.18;;;1.23;;
23117;SDS011;11728;50.624;6.014;2022-07-12T17:58:15;3.17;;;1.40;;
23117;SDS011;11728;50.624;6.014;2022-07-12T18:03:37;22.65;;;3.65;;
23117;SDS011;11728;50.624;6.014;2022-07-12T18:08:44;4.57;;;1.58;;
23117;SDS011;11728;50.624;6.014;2022-07-12T18:13:44;6.07;;;1.73;;
23117;SDS011;11728;50.624;6.014;2022-07-12T18:19:04;2.75;;;1.40;;
23117;SDS011;11728;50.624;6.014;2022-07-12T18:24:06;6.15;;;2.22;;
23117;SDS011;11728;50.624;6.014;2022-07-12T18:29:06;4.95;;;1.65;;
23117;SDS011;11728;50.624;6.014;2022-07-12T18:34:09;4.55;;;1.50;;
23117;SDS011;11728;50.624;6.014;2022-07-12T18:39:10;2.88;;;1.52;;
23117;SDS011;11728;50.624;6.014;2022-07-12T18:44:12;3.10;;;1.60;;
23117;SDS011;11728;50.624;6.014;2022-07-12T18:49:13;4.50;;;1.63;;
23117;SDS011;11728;50.624;6.014;2022-07-12T18:54:14;4.55;;;1.70;;
23117;SDS011;11728;50.624;6.014;2022-07-12T18:59:15;2.60;;;1.42;;
23117;SDS011;11728;50.624;6.014;2022-07-12T19:04:15;2.40;;;1.50;;
23117;SDS011;11728;50.624;6.014;2022-07-12T19:09:16;6.75;;;1.80;;
23117;SDS011;11728;50.624;6.014;2022-07-12T19:14:16;3.22;;;1.40;;
23117;SDS011;11728;50.624;6.014;2022-07-12T19:19:17;3.75;;;1.60;;
23117;SDS011;11728;50.624;6.014;2022-07-12T19:24:17;2.50;;;1.50;;
23117;SDS011;11728;50.624;6.014;2022-07-12T19:29:19;4.60;;;1.77;;
23117;SDS011;11728;50.624;6.014;2022-07-12T19:34:19;3.47;;;1.65;;
23117;SDS011;11728;50.624;6.014;2022-07-12T19:39:20;4.40;;;1.90;;
23117;SDS011;11728;50.624;6.014;2022-07-12T19:44:20;4.53;;;1.80;;
23117;SDS011;11728;50.624;6.014;2022-07-12T19:49:22;3.17;;;1.70;;
23117;SDS011;11728;50.624;6.014;2022-07-12T19:54:22;4.50;;;1.77;;
23117;SDS011;11728;50.624;6.014;2022-07-12T19:59:24;4.45;;;1.70;;
23117;SDS011;11728;50.624;6.014;2022-07-12T20:04:27;2.92;;;1.70;;
23117;SDS011;11728;50.624;6.014;2022-07-12T20:09:30;4.57;;;1.88;;
23117;SDS011;11728;50.624;6.014;2022-07-12T20:14:31;3.95;;;1.77;;
23117;SDS011;11728;50.624;6.014;2022-07-12T20:19:32;2.53;;;1.80;;
23117;SDS011;11728;50.624;6.014;2022-07-12T20:24:36;3.17;;;1.80;;
23117;SDS011;11728;50.624;6.014;2022-07-12T20:29:37;4.25;;;1.70;;
23117;SDS011;11728;50.624;6.014;2022-07-12T20:34:37;2.58;;;1.70;;
23117;SDS011;11728;50.624;6.014;2022-07-12T20:39:38;2.80;;;1.80;;
23117;SDS011;11728;50.624;6.014;2022-07-12T20:44:39;2.40;;;1.70;;
23117;SDS011;11728;50.624;6.014;2022-07-12T20:49:39;3.85;;;1.80;;
23117;SDS011;11728;50.624;6.014;2022-07-12T20:54:40;2.80;;;1.70;;
23117;SDS011;11728;50.624;6.014;2022-07-12T20:59:41;3.95;;;1.85;;
23117;SDS011;11728;50.624;6.014;2022-07-12T21:04:43;4.35;;;1.58;;
23117;SDS011;11728;50.624;6.014;2022-07-12T21:09:43;2.55;;;1.95;;
23117;SDS011;11728;50.624;6.014;2022-07-12T21:14:44;4.47;;;1.70;;
23117;SDS011;11728;50.624;6.014;2022-07-12T21:19:45;2.60;;;1.60;;
23117;SDS011;11728;50.624;6.014;2022-07-12T21:24:45;2.67;;;1.90;;
23117;SDS011;11728;50.624;6.014;2022-07-12T21:29:46;2.60;;;1.80;;
23117;SDS011;11728;50.624;6.014;2022-07-12T21:34:47;5.88;;;2.38;;
23117;SDS011;11728;50.624;6.014;2022-07-12T21:39:48;4.63;;;2.15;;
23117;SDS011;11728;50.624;6.014;2022-07-12T21:44:48;3.50;;;1.85;;
23117;SDS011;11728;50.624;6.014;2022-07-12T21:49:49;4.40;;;2.15;;
23117;SDS011;11728;50.624;6.014;2022-07-12T21:54:50;3.90;;;2.20;;
23117;SDS011;11728;50.624;6.014;2022-07-12T21:59:52;3.35;;;1.60;;
23117;SDS011;11728;50.624;6.014;2022-07-12T22:04:52;2.45;;;1.60;;
23117;SDS011;11728;50.624;6.014;2022-07-12T22:09:53;2.63;;;1.70;;
23117;SDS011;11728;50.624;6.014;2022-07-12T22:14:53;4.65;;;1.63;;
23117;SDS011;11728;50.624;6.014;2022-07-12T22:19:54;4.63;;;1.77;;
23117;SDS011;11728;50.624;6.014;2022-07-12T22:24:54;2.90;;;1.50;;
23117;SDS011;11728;50.624;6.014;2022-07-12T22:29:56;2.00;;;1.40;;
23117;SDS011;11728;50.624;6.014;2022-07-12T22:34:57;2.45;;;1.58;;
23117;SDS011;11728;50.624;6.014;2022-07-12T22:39:59;1.90;;;1.15;;
23117;SDS011;11728;50.624;6.014;2022-07-12T22:44:59;5.40;;;1.50;;
23117;SDS011;11728;50.624;6.014;2022-07-12T22:50:00;3.78;;;1.23;;
23117;SDS011;11728;50.624;6.014;2022-07-12T22:55:00;4.13;;;1.38;;
23117;SDS011;11728;50.624;6.014;2022-07-12T23:00:01;4.63;;;1.20;;
23117;SDS011;11728;50.624;6.014;2022-07-12T23:05:01;5.28;;;1.38;;
23117;SDS011;11728;50.624;6.014;2022-07-12T23:10:02;2.75;;;1.50;;
23117;SDS011;11728;50.624;6.014;2022-07-12T23:15:03;3.35;;;1.60;;
23117;SDS011;11728;50.624;6.014;2022-07-12T23:20:04;3.80;;;1.23;;
23117;SDS011;11728;50.624;6.014;2022-07-12T23:25:05;5.00;;;1.10;;
23117;SDS011;11728;50.624;6.014;2022-07-12T23:30:06;2.50;;;1.23;;
23117;SDS011;11728;50.624;6.014;2022-07-12T23:35:07;2.08;;;1.30;;
23117;SDS011;11728;50.624;6.014;2022-07-12T23:40:08;1.90;;;0.98;;
23117;SDS011;11728;50.624;6.014;2022-07-12T23:45:09;1.83;;;1.23;;
23117;SDS011;11728;50.624;6.014;2022-07-12T23:50:10;3.00;;;1.00;;
23117;SDS011;11728;50.624;6.014;2022-07-12T23:55:10;1.90;;;1.20;;
